createdAt,value
2023-03-28T00:02:18.596Z,6.88
2023-03-28T00:07:20.958Z,6.38
2023-03-28T00:12:23.596Z,6.25
2023-03-28T00:17:25.812Z,3.70
2023-03-28T00:22:30.486Z,4.75
2023-03-28T00:27:33.431Z,5.18
2023-03-28T00:32:35.320Z,2.25
2023-03-28T00:37:37.403Z,2.25
2023-03-28T00:42:42.138Z,3.00
2023-03-28T00:47:49.530Z,4.47
2023-03-28T00:52:57.129Z,3.88
2023-03-28T00:57:59.927Z,4.38
2023-03-28T01:03:03.909Z,5.07
2023-03-28T01:08:11.238Z,2.50
2023-03-28T01:13:16.346Z,3.85
2023-03-28T01:18:22.872Z,3.20
2023-03-28T01:24:12.527Z,4.40
2023-03-28T01:29:36.348Z,4.07
2023-03-28T01:35:02.818Z,4.70
2023-03-28T01:40:19.232Z,5.32
2023-03-28T01:45:26.996Z,6.30
2023-03-28T01:51:04.272Z,3.92
2023-03-28T01:56:30.755Z,4.68
2023-03-28T02:01:45.629Z,6.25
2023-03-28T02:06:50.486Z,4.15
2023-03-28T02:12:04.749Z,5.32
2023-03-28T02:17:16.185Z,4.55
2023-03-28T02:22:30.332Z,7.32
2023-03-28T02:27:34.274Z,4.10
2023-03-28T02:32:36.195Z,3.28
2023-03-28T02:38:02.922Z,5.10
2023-03-28T02:43:11.041Z,5.03
2023-03-28T02:48:37.648Z,5.22
2023-03-28T02:54:09.348Z,5.63
2023-03-28T02:59:37.027Z,4.93
2023-03-28T03:04:39.358Z,7.47
2023-03-28T03:09:43.791Z,3.70
2023-03-28T03:14:51.147Z,5.03
2023-03-28T03:19:53.168Z,4.13
2023-03-28T03:24:56.378Z,6.32
2023-03-28T03:29:58.976Z,4.70
2023-03-28T03:35:01.082Z,7.82
2023-03-28T03:40:05.706Z,9.88
2023-03-28T03:45:09.657Z,5.65
2023-03-28T03:50:11.447Z,4.53
2023-03-28T03:55:14.422Z,6.10
2023-03-28T04:00:17.249Z,7.30
2023-03-28T04:05:19.368Z,7.10
2023-03-28T04:10:21.193Z,6.90
2023-03-28T04:15:22.968Z,10.35
2023-03-28T04:20:26.700Z,9.35
2023-03-28T04:25:30.350Z,5.97
2023-03-28T04:30:33.623Z,11.57
2023-03-28T04:35:36.130Z,7.80
2023-03-28T04:40:39.784Z,6.03
2023-03-28T04:45:41.654Z,6.97
2023-03-28T04:50:43.547Z,11.55
2023-03-28T04:55:50.625Z,9.85
2023-03-28T05:00:53.990Z,6.25
2023-03-28T05:05:55.976Z,7.88
2023-03-28T05:10:57.777Z,12.00
2023-03-28T05:15:59.609Z,10.07
2023-03-28T05:21:01.650Z,9.45
2023-03-28T05:26:04.252Z,11.18
2023-03-28T05:31:07.486Z,13.27
2023-03-28T05:36:10.418Z,9.70
2023-03-28T05:41:12.478Z,90.13
2023-03-28T05:46:14.325Z,138.95
2023-03-28T05:51:17.296Z,131.50
2023-03-28T05:56:19.179Z,67.65
2023-03-28T06:01:23.502Z,34.70
2023-03-28T06:06:25.354Z,28.40
2023-03-28T06:11:27.252Z,29.77
2023-03-28T06:16:30.353Z,34.90
2023-03-28T06:21:32.979Z,18.48
2023-03-28T06:26:34.737Z,29.13
2023-03-28T06:31:37.882Z,25.35
2023-03-28T06:36:39.762Z,11.90
2023-03-28T06:41:41.642Z,15.70
2023-03-28T06:46:43.579Z,19.42
2023-03-28T06:51:45.374Z,24.17
2023-03-28T06:56:47.516Z,22.80
2023-03-28T07:01:49.425Z,16.02
2023-03-28T07:06:51.562Z,18.55
2023-03-28T07:11:54.114Z,15.60
2023-03-28T07:16:55.962Z,17.30
2023-03-28T07:21:58.301Z,12.75
2023-03-28T07:27:12.356Z,14.93
2023-03-28T07:32:17.178Z,18.00
2023-03-28T07:37:19.182Z,13.82
2023-03-28T07:42:22.361Z,11.10
2023-03-28T07:47:24.163Z,11.55
2023-03-28T07:52:26.253Z,11.55
2023-03-28T07:57:28.316Z,4.95
2023-03-28T08:02:30.631Z,10.68
2023-03-28T08:07:34.031Z,6.38
2023-03-28T08:12:37.639Z,12.57
2023-03-28T08:17:39.724Z,9.65
2023-03-28T08:22:41.891Z,12.30
2023-03-28T08:27:43.983Z,9.40
2023-03-28T08:32:48.654Z,8.82
2023-03-28T08:37:51.594Z,11.65
2023-03-28T08:43:06.666Z,9.52
2023-03-28T08:48:11.416Z,6.57
2023-03-28T08:53:44.371Z,10.15
2023-03-28T08:58:58.348Z,8.20
2023-03-28T09:04:01.682Z,7.18
2023-03-28T09:09:10.249Z,5.68
2023-03-28T09:14:43.686Z,7.68
2023-03-28T09:20:11.946Z,6.60
2023-03-28T09:26:01.799Z,6.40
2023-03-28T09:31:07.963Z,9.38
2023-03-28T09:36:16.271Z,6.40
2023-03-28T09:41:44.238Z,6.05
2023-03-28T09:46:48.774Z,5.53
2023-03-28T09:51:55.663Z,7.30
2023-03-28T09:57:05.353Z,8.85
2023-03-28T10:02:27.156Z,3.80
2023-03-28T10:07:43.995Z,8.07
2023-03-28T10:12:49.172Z,5.88
2023-03-28T10:17:51.126Z,6.60
2023-03-28T10:22:56.074Z,2.72
2023-03-28T10:28:01.114Z,10.63
2023-03-28T10:33:18.093Z,4.57
2023-03-28T10:38:21.673Z,6.50
2023-03-28T10:43:33.066Z,3.53
2023-03-28T10:54:05.000Z,6.35
2023-03-28T10:59:12.528Z,7.78
2023-03-28T11:04:25.151Z,2.28
2023-03-28T11:09:47.085Z,4.47
2023-03-28T11:15:12.483Z,7.47
2023-03-28T11:20:37.121Z,7.85
2023-03-28T11:26:22.351Z,2.13
2023-03-28T11:31:27.089Z,5.53
2023-03-28T11:36:42.349Z,4.30
2023-03-28T11:41:47.446Z,2.67
2023-03-28T11:46:59.477Z,3.13
2023-03-28T11:52:24.008Z,3.72
2023-03-28T11:57:55.199Z,6.55
2023-03-28T12:03:19.582Z,3.28
2023-03-28T12:08:34.869Z,1.77
2023-03-28T12:13:45.992Z,3.05
2023-03-28T12:18:58.238Z,7.53
2023-03-28T12:24:25.048Z,4.82
2023-03-28T12:29:33.362Z,3.67
2023-03-28T12:34:42.691Z,5.10
2023-03-28T12:40:14.671Z,4.30
2023-03-28T12:45:41.296Z,2.97
2023-03-28T12:50:57.233Z,4.53
2023-03-28T12:55:59.430Z,3.15
2023-03-28T13:01:44.488Z,8.55
2023-03-28T13:07:03.762Z,2.78
2023-03-28T13:12:24.267Z,8.05
2023-03-28T13:17:32.606Z,4.13
2023-03-28T13:22:42.468Z,4.70
2023-03-28T13:27:44.214Z,9.00
2023-03-28T13:32:51.651Z,7.03
2023-03-28T13:37:53.658Z,6.50
2023-03-28T13:43:01.603Z,7.00
2023-03-28T13:48:13.131Z,3.90
2023-03-28T13:53:15.808Z,6.63
2023-03-28T13:58:19.096Z,4.05
2023-03-28T14:03:21.154Z,9.80
2023-03-28T14:08:25.797Z,8.57
2023-03-28T14:13:30.491Z,3.67
2023-03-28T14:18:37.944Z,3.03
2023-03-28T14:23:56.499Z,5.45
2023-03-28T14:29:02.159Z,5.15
2023-03-28T14:34:25.949Z,3.55
2023-03-28T14:39:31.420Z,8.23
2023-03-28T14:44:39.366Z,2.90
2023-03-28T14:49:41.510Z,3.50
2023-03-28T14:54:50.359Z,5.20
2023-03-28T14:59:53.963Z,3.05
2023-03-28T15:05:01.821Z,5.78
2023-03-28T15:10:25.232Z,4.00
2023-03-28T15:15:33.927Z,3.00
2023-03-28T15:20:38.046Z,3.13
2023-03-28T15:25:39.918Z,3.35
2023-03-28T15:30:43.833Z,3.40
2023-03-28T15:35:47.025Z,4.40
2023-03-28T15:40:51.571Z,6.43
2023-03-28T15:46:00.248Z,2.13
2023-03-28T15:51:08.425Z,5.28
2023-03-28T15:56:27.475Z,6.35
2023-03-28T16:01:31.130Z,5.30
2023-03-28T16:06:42.018Z,1.83
2023-03-28T16:11:46.268Z,4.53
2023-03-28T16:16:54.571Z,3.22
2023-03-28T16:21:58.419Z,3.85
2023-03-28T16:27:02.089Z,3.38
2023-03-28T16:32:04.039Z,5.28
2023-03-28T16:37:09.113Z,2.40
2023-03-28T16:42:11.120Z,4.68
2023-03-28T16:47:13.175Z,4.05
2023-03-28T16:52:14.947Z,3.95
2023-03-28T16:57:16.900Z,2.63
2023-03-28T17:02:18.838Z,4.13
2023-03-28T17:07:21.386Z,2.45
2023-03-28T17:12:26.593Z,3.58
2023-03-28T17:17:28.489Z,8.98
2023-03-28T17:22:34.906Z,4.53
2023-03-28T17:27:36.768Z,2.88
2023-03-28T17:32:39.039Z,2.78
2023-03-28T17:37:40.942Z,1.70
2023-03-28T17:42:42.765Z,4.75
2023-03-28T17:47:45.059Z,5.97
2023-03-28T17:52:47.229Z,7.40
2023-03-28T17:57:49.032Z,7.72
2023-03-28T18:02:51.872Z,14.57
2023-03-28T18:07:56.288Z,11.30
2023-03-28T18:12:58.450Z,13.40
2023-03-28T18:18:01.898Z,13.18
2023-03-28T18:23:04.013Z,12.65
2023-03-28T18:28:06.931Z,10.73
2023-03-28T18:33:11.926Z,16.45
2023-03-28T18:38:14.436Z,12.15
2023-03-28T18:43:17.088Z,13.35
2023-03-28T18:48:19.457Z,7.93
2023-03-28T18:53:22.684Z,20.08
2023-03-28T18:58:25.983Z,14.63
2023-03-28T19:03:28.911Z,13.88
2023-03-28T19:08:31.323Z,13.38
2023-03-28T19:13:36.577Z,12.80
2023-03-28T19:18:41.236Z,18.60
2023-03-28T19:23:43.640Z,19.45
2023-03-28T19:28:47.109Z,13.65
2023-03-28T19:33:49.257Z,15.23
2023-03-28T19:38:53.838Z,20.92
2023-03-28T19:43:56.198Z,21.75
2023-03-28T19:48:58.712Z,10.27
2023-03-28T19:54:01.009Z,17.42
2023-03-28T19:59:03.136Z,29.67
2023-03-28T20:04:05.315Z,19.90
2023-03-28T20:09:07.130Z,20.42
2023-03-28T20:14:09.455Z,15.35
2023-03-28T20:19:11.239Z,18.52
2023-03-28T20:24:16.839Z,6.22
2023-03-28T20:29:19.056Z,21.88
2023-03-28T20:34:21.057Z,18.38
2023-03-28T20:39:26.454Z,9.80
2023-03-28T20:44:30.140Z,8.43
2023-03-28T20:49:32.146Z,15.38
2023-03-28T20:54:34.510Z,15.10
2023-03-28T20:59:36.253Z,15.93
2023-03-28T21:04:39.340Z,16.45
2023-03-28T21:09:41.806Z,18.65
2023-03-28T21:14:43.646Z,20.98
2023-03-28T21:19:46.953Z,16.48
2023-03-28T21:24:49.404Z,20.50
2023-03-28T21:29:51.380Z,16.63
2023-03-28T21:34:56.440Z,18.55
2023-03-28T21:39:58.318Z,6.65
2023-03-28T21:45:01.139Z,4.63
2023-03-28T21:50:03.071Z,3.17
2023-03-28T21:55:06.222Z,7.70
2023-03-28T22:00:14.979Z,7.50
2023-03-28T22:05:28.768Z,12.82
2023-03-28T22:10:32.142Z,4.15
2023-03-28T22:15:34.061Z,41.40
2023-03-28T22:20:37.839Z,3.47
2023-03-28T22:25:39.817Z,5.10
2023-03-28T22:30:42.064Z,5.13
2023-03-28T22:35:44.098Z,3.78
2023-03-28T22:40:47.429Z,2.97
2023-03-28T22:45:49.621Z,5.53
2023-03-28T22:50:51.512Z,7.18
2023-03-28T22:55:54.539Z,8.43
2023-03-28T23:00:56.645Z,4.30
2023-03-28T23:06:03.403Z,3.38
2023-03-28T23:11:06.273Z,3.88
2023-03-28T23:16:08.962Z,4.32
2023-03-28T23:21:11.009Z,2.33
2023-03-28T23:26:16.757Z,3.33
2023-03-28T23:31:18.771Z,1.60
2023-03-28T23:36:21.061Z,6.38
2023-03-28T23:41:23.832Z,2.95
2023-03-28T23:46:26.034Z,2.15
2023-03-28T23:51:29.363Z,3.15
2023-03-28T23:56:31.410Z,4.65
